createdAt,value
2023-02-02T00:02:05.947Z,3.60
2023-02-02T00:04:35.065Z,3.92
2023-02-02T00:07:02.967Z,4.00
2023-02-02T00:09:31.419Z,3.83
2023-02-02T00:11:59.606Z,3.55
2023-02-02T00:14:26.622Z,4.32
2023-02-02T00:16:54.876Z,4.78
2023-02-02T00:19:27.419Z,4.03
2023-02-02T00:21:54.947Z,3.85
2023-02-02T00:24:22.131Z,3.45
2023-02-02T00:26:51.099Z,3.80
2023-02-02T00:29:23.506Z,4.10
2023-02-02T00:31:50.505Z,3.83
2023-02-02T00:34:17.709Z,3.83
2023-02-02T00:36:45.188Z,3.65
2023-02-02T00:39:16.020Z,3.88
2023-02-02T00:41:42.777Z,3.97
2023-02-02T00:44:28.049Z,4.30
2023-02-02T00:46:54.778Z,3.83
2023-02-02T00:49:21.656Z,3.72
2023-02-02T00:51:48.277Z,3.60
2023-02-02T00:54:14.943Z,4.10
2023-02-02T00:56:41.918Z,4.05
2023-02-02T00:59:08.564Z,3.25
2023-02-02T01:01:35.434Z,4.03
2023-02-02T01:04:02.289Z,3.75
2023-02-02T01:06:28.958Z,3.80
2023-02-02T01:08:55.646Z,3.75
2023-02-02T01:11:22.390Z,3.08
2023-02-02T01:13:48.974Z,3.63
2023-02-02T01:16:15.856Z,4.13
2023-02-02T01:18:42.721Z,3.63
2023-02-02T01:21:11.807Z,4.18
2023-02-02T01:23:39.518Z,3.53
2023-02-02T01:26:08.769Z,3.72
2023-02-02T01:28:35.753Z,3.30
2023-02-02T01:31:12.074Z,2.50
2023-02-02T01:33:39.385Z,3.50
2023-02-02T01:36:09.862Z,3.58
2023-02-02T01:38:36.638Z,3.30
2023-02-02T01:41:07.068Z,3.80
2023-02-02T01:43:45.457Z,3.50
2023-02-02T01:46:13.631Z,2.92
2023-02-02T01:48:43.920Z,3.47
2023-02-02T01:51:17.646Z,4.30
2023-02-02T01:53:46.041Z,4.10
2023-02-02T01:56:17.644Z,3.10
2023-02-02T01:58:45.581Z,3.17
2023-02-02T02:01:13.648Z,2.85
2023-02-02T02:03:40.435Z,3.00
2023-02-02T02:06:15.161Z,3.28
2023-02-02T02:08:57.260Z,3.70
2023-02-02T02:11:24.933Z,4.22
2023-02-02T02:14:12.713Z,4.00
2023-02-02T02:16:45.360Z,3.22
2023-02-02T02:20:08.708Z,3.47
2023-02-02T02:23:15.953Z,4.00
2023-02-02T02:26:23.649Z,3.35
2023-02-02T02:29:22.415Z,3.33
2023-02-02T02:32:29.876Z,4.35
2023-02-02T02:34:56.609Z,4.50
2023-02-02T02:37:29.074Z,3.20
2023-02-02T02:40:02.538Z,3.60
2023-02-02T02:42:33.590Z,3.72
2023-02-02T02:45:02.579Z,3.67
2023-02-02T02:47:31.315Z,3.30
2023-02-02T02:49:58.089Z,3.78
2023-02-02T02:52:24.676Z,3.85
2023-02-02T02:54:55.876Z,4.40
2023-02-02T02:57:32.188Z,3.65
2023-02-02T03:00:23.128Z,4.03
2023-02-02T03:03:05.328Z,5.20
2023-02-02T03:05:54.355Z,3.85
2023-02-02T03:08:46.638Z,4.57
2023-02-02T03:11:15.159Z,2.78
2023-02-02T03:13:43.183Z,4.60
2023-02-02T03:16:10.861Z,3.80
2023-02-02T03:18:37.579Z,4.38
2023-02-02T03:21:04.362Z,3.80
2023-02-02T03:23:30.984Z,4.22
2023-02-02T03:25:57.700Z,3.60
2023-02-02T03:28:25.055Z,4.82
2023-02-02T03:30:53.267Z,3.35
2023-02-02T03:33:20.241Z,4.18
2023-02-02T03:35:47.316Z,3.85
2023-02-02T03:38:14.121Z,3.28
2023-02-02T03:40:41.082Z,4.88
2023-02-02T03:43:08.052Z,4.22
2023-02-02T03:45:40.567Z,4.40
2023-02-02T03:48:07.262Z,4.50
2023-02-02T03:50:34.301Z,3.03
2023-02-02T03:53:00.944Z,3.83
2023-02-02T03:55:27.609Z,3.50
2023-02-02T03:57:54.209Z,4.20
2023-02-02T04:00:21.312Z,3.90
2023-02-02T04:02:48.049Z,3.88
2023-02-02T04:05:14.712Z,4.68
2023-02-02T04:07:41.437Z,4.32
2023-02-02T04:10:08.556Z,3.25
2023-02-02T04:12:35.304Z,4.13
2023-02-02T04:15:01.962Z,3.30
2023-02-02T04:17:28.538Z,4.45
2023-02-02T04:19:58.081Z,3.60
2023-02-02T04:22:26.084Z,4.20
2023-02-02T04:24:52.993Z,3.80
2023-02-02T04:27:19.882Z,3.90
2023-02-02T04:29:46.619Z,4.15
2023-02-02T04:32:16.317Z,3.50
2023-02-02T04:34:43.476Z,4.47
2023-02-02T04:37:11.112Z,4.03
2023-02-02T04:39:37.884Z,4.20
2023-02-02T04:42:04.618Z,3.65
2023-02-02T04:44:31.202Z,3.60
2023-02-02T04:46:57.802Z,4.22
2023-02-02T04:49:24.505Z,3.08
2023-02-02T04:51:51.456Z,3.58
2023-02-02T04:54:18.241Z,3.70
2023-02-02T04:56:44.893Z,3.55
2023-02-02T04:59:11.492Z,3.33
2023-02-02T05:01:38.073Z,4.13
2023-02-02T05:04:04.849Z,3.75
2023-02-02T05:06:31.512Z,4.05
2023-02-02T05:08:58.116Z,4.80
2023-02-02T05:11:24.838Z,4.10
2023-02-02T05:13:53.699Z,3.97
2023-02-02T05:16:22.572Z,4.38
2023-02-02T05:18:54.638Z,4.40
2023-02-02T05:21:21.734Z,5.03
2023-02-02T05:23:49.057Z,4.05
2023-02-02T05:26:18.483Z,4.20
2023-02-02T05:28:45.395Z,4.80
2023-02-02T05:31:12.108Z,3.50
2023-02-02T05:33:38.725Z,4.38
2023-02-02T05:36:06.328Z,4.25
2023-02-02T05:38:33.067Z,4.53
2023-02-02T05:41:00.258Z,4.28
2023-02-02T05:43:28.909Z,5.22
2023-02-02T05:45:55.774Z,4.50
2023-02-02T05:48:22.439Z,3.95
2023-02-02T05:51:01.668Z,4.25
2023-02-02T05:53:30.541Z,4.47
2023-02-02T05:55:57.434Z,4.63
2023-02-02T05:58:24.144Z,4.20
2023-02-02T06:00:50.746Z,5.60
2023-02-02T06:03:17.521Z,4.40
2023-02-02T06:05:44.142Z,3.92
2023-02-02T06:08:10.758Z,5.00
2023-02-02T06:10:41.589Z,4.82
2023-02-02T06:13:08.966Z,4.88
2023-02-02T06:15:36.366Z,5.40
2023-02-02T06:18:03.129Z,3.72
2023-02-02T06:20:29.826Z,5.57
2023-02-02T06:22:56.437Z,5.13
2023-02-02T06:25:23.626Z,4.57
2023-02-02T06:27:50.464Z,4.72
2023-02-02T06:30:17.218Z,4.18
2023-02-02T06:32:43.802Z,5.65
2023-02-02T06:35:10.513Z,5.30
2023-02-02T06:37:38.925Z,4.43
2023-02-02T06:40:07.661Z,4.93
2023-02-02T06:42:34.588Z,6.60
2023-02-02T06:45:01.172Z,4.45
2023-02-02T06:47:27.797Z,5.50
2023-02-02T06:49:54.501Z,4.93
2023-02-02T06:52:21.153Z,4.47
2023-02-02T06:54:47.748Z,5.30
2023-02-02T06:57:14.412Z,5.28
2023-02-02T06:59:41.542Z,5.40
2023-02-02T07:02:13.135Z,5.05
2023-02-02T07:04:40.050Z,5.25
2023-02-02T07:07:06.617Z,4.75
2023-02-02T07:09:34.264Z,5.15
2023-02-02T07:12:01.004Z,6.10
2023-02-02T07:14:27.581Z,5.85
2023-02-02T07:16:54.208Z,4.60
2023-02-02T07:19:20.852Z,4.40
2023-02-02T07:21:47.547Z,5.30
2023-02-02T07:24:14.113Z,4.97
2023-02-02T07:26:40.908Z,4.50
2023-02-02T07:29:07.670Z,4.05
2023-02-02T07:31:36.609Z,5.20
2023-02-02T07:34:03.580Z,5.75
2023-02-02T07:36:30.223Z,4.68
2023-02-02T07:39:01.943Z,5.72
2023-02-02T07:41:28.524Z,5.18
2023-02-02T07:43:55.249Z,6.03
2023-02-02T07:46:22.361Z,5.30
2023-02-02T07:48:49.139Z,4.97
2023-02-02T07:51:18.225Z,5.93
2023-02-02T07:53:51.386Z,5.85
2023-02-02T07:56:23.891Z,6.45
2023-02-02T07:58:53.060Z,6.28
2023-02-02T08:01:22.650Z,6.00
2023-02-02T08:03:50.489Z,6.25
2023-02-02T08:06:24.545Z,5.80
2023-02-02T08:08:51.657Z,7.20
2023-02-02T08:11:21.390Z,5.65
2023-02-02T08:13:52.602Z,6.03
2023-02-02T08:16:19.996Z,5.80
2023-02-02T08:18:47.127Z,5.80
2023-02-02T08:21:14.288Z,5.90
2023-02-02T08:23:42.245Z,5.47
2023-02-02T08:26:22.325Z,5.97
2023-02-02T08:29:08.201Z,5.30
2023-02-02T08:31:41.721Z,4.90
2023-02-02T08:34:08.492Z,5.63
2023-02-02T08:36:35.526Z,5.28
2023-02-02T08:39:04.905Z,5.22
2023-02-02T08:41:32.574Z,5.63
2023-02-02T08:43:59.520Z,5.15
2023-02-02T08:46:26.374Z,5.07
2023-02-02T08:48:53.020Z,5.45
2023-02-02T08:51:20.275Z,5.15
2023-02-02T08:53:47.636Z,5.30
2023-02-02T08:56:19.164Z,4.35
2023-02-02T08:58:47.576Z,5.68
2023-02-02T09:01:32.019Z,4.82
2023-02-02T09:04:02.280Z,4.97
2023-02-02T09:06:33.392Z,5.00
2023-02-02T09:09:00.487Z,5.32
2023-02-02T09:11:27.909Z,5.45
2023-02-02T09:13:57.041Z,5.20
2023-02-02T09:16:24.799Z,5.50
2023-02-02T09:18:51.604Z,5.35
2023-02-02T09:21:19.385Z,5.40
2023-02-02T09:23:47.590Z,5.43
2023-02-02T09:26:18.684Z,5.82
2023-02-02T09:28:48.186Z,5.35
2023-02-02T09:31:15.958Z,5.20
2023-02-02T09:33:43.464Z,5.63
2023-02-02T09:36:22.095Z,5.30
2023-02-02T09:38:50.246Z,5.20
2023-02-02T09:41:29.172Z,5.28
2023-02-02T09:44:10.776Z,4.82
2023-02-02T09:46:59.396Z,5.50
2023-02-02T09:49:47.777Z,4.82
2023-02-02T09:52:20.777Z,5.40
2023-02-02T09:54:49.488Z,5.25
2023-02-02T09:57:22.440Z,4.88
2023-02-02T09:59:52.111Z,5.22
2023-02-02T10:02:42.126Z,5.20
2023-02-02T10:05:16.870Z,4.57
2023-02-02T10:07:47.980Z,5.35
2023-02-02T10:10:26.631Z,5.00
2023-02-02T10:13:04.613Z,4.25
2023-02-02T10:15:44.314Z,5.70
2023-02-02T10:18:20.813Z,3.67
2023-02-02T10:21:00.790Z,4.40
2023-02-02T10:23:36.868Z,4.50
2023-02-02T10:26:03.460Z,3.63
2023-02-02T10:28:57.057Z,4.25
2023-02-02T10:31:35.774Z,4.60
2023-02-02T10:34:13.647Z,3.80
2023-02-02T10:36:58.516Z,4.78
2023-02-02T10:39:59.023Z,4.60
2023-02-02T10:42:25.639Z,4.70
2023-02-02T10:45:00.041Z,4.47
2023-02-02T10:47:30.319Z,4.32
2023-02-02T10:50:21.619Z,4.70
2023-02-02T10:52:53.044Z,4.55
2023-02-02T10:55:32.876Z,4.25
2023-02-02T10:58:32.138Z,6.80
2023-02-02T11:01:01.235Z,4.20
2023-02-02T11:03:29.943Z,4.05
2023-02-02T11:06:18.582Z,4.47
2023-02-02T11:08:48.058Z,4.68
2023-02-02T11:11:25.688Z,4.28
2023-02-02T11:14:04.709Z,4.72
2023-02-02T11:16:42.706Z,4.30
2023-02-02T11:19:19.731Z,3.50
2023-02-02T11:21:56.408Z,4.00
2023-02-02T11:24:45.250Z,3.60
2023-02-02T11:27:24.090Z,4.07
2023-02-02T11:30:15.168Z,4.55
2023-02-02T11:32:41.807Z,4.35
2023-02-02T11:35:08.384Z,4.35
2023-02-02T11:37:36.311Z,4.20
2023-02-02T11:40:29.983Z,3.85
2023-02-02T11:42:59.827Z,4.28
2023-02-02T11:45:42.296Z,3.63
2023-02-02T11:48:26.358Z,4.53
2023-02-02T11:50:55.132Z,4.68
2023-02-02T11:53:25.544Z,4.18
2023-02-02T11:55:53.131Z,4.35
2023-02-02T11:58:27.428Z,3.88
2023-02-02T12:00:55.846Z,4.05
2023-02-02T12:03:25.736Z,4.30
2023-02-02T12:05:52.918Z,4.30
2023-02-02T12:08:20.535Z,4.32
2023-02-02T12:11:02.870Z,3.78
2023-02-02T12:13:48.728Z,4.05
2023-02-02T12:16:33.906Z,4.38
2023-02-02T12:19:04.863Z,3.92
2023-02-02T12:21:53.071Z,3.88
2023-02-02T12:24:34.443Z,5.10
2023-02-02T12:27:29.819Z,4.38
2023-02-02T12:30:08.729Z,4.28
2023-02-02T12:32:44.189Z,4.30
2023-02-02T12:35:39.917Z,4.38
2023-02-02T12:38:06.496Z,4.40
2023-02-02T12:40:48.272Z,4.65
2023-02-02T12:43:14.796Z,4.15
2023-02-02T12:46:12.122Z,4.30
2023-02-02T12:49:16.865Z,4.82
2023-02-02T12:52:02.573Z,4.70
2023-02-02T12:54:44.921Z,4.80
2023-02-02T12:57:22.718Z,4.35
2023-02-02T12:59:55.385Z,5.65
2023-02-02T13:02:41.861Z,4.05
2023-02-02T13:05:37.443Z,4.78
2023-02-02T13:08:12.491Z,4.65
2023-02-02T13:10:43.023Z,5.50
2023-02-02T13:13:19.524Z,4.85
2023-02-02T13:15:50.955Z,5.10
2023-02-02T13:18:25.810Z,4.70
2023-02-02T13:21:02.308Z,4.80
2023-02-02T13:23:33.985Z,5.40
2023-02-02T13:26:08.912Z,5.03
2023-02-02T13:28:42.209Z,5.25
2023-02-02T13:31:18.376Z,5.10
2023-02-02T13:33:49.456Z,5.53
2023-02-02T13:36:29.484Z,5.07
2023-02-02T13:38:59.874Z,6.32
2023-02-02T13:41:28.277Z,5.38
2023-02-02T13:44:07.123Z,6.20
2023-02-02T13:46:42.659Z,5.75
2023-02-02T13:49:23.247Z,5.40
2023-02-02T13:52:01.455Z,5.65
2023-02-02T13:54:53.814Z,5.68
2023-02-02T13:57:26.372Z,6.22
2023-02-02T14:00:11.691Z,6.28
2023-02-02T14:02:53.556Z,6.35
2023-02-02T14:05:23.316Z,6.85
2023-02-02T14:07:57.313Z,5.82
2023-02-02T14:10:39.206Z,6.60
2023-02-02T14:13:33.929Z,6.50
2023-02-02T14:16:03.470Z,6.85
2023-02-02T14:18:48.584Z,6.13
2023-02-02T14:21:33.474Z,6.35
2023-02-02T14:24:23.501Z,6.65
2023-02-02T14:26:56.191Z,7.22
2023-02-02T14:29:31.927Z,6.78
2023-02-02T14:32:29.089Z,6.75
2023-02-02T14:35:14.297Z,6.28
2023-02-02T14:37:52.870Z,6.72
2023-02-02T14:40:34.773Z,6.78
2023-02-02T14:43:43.836Z,6.78
2023-02-02T14:46:13.347Z,7.20
2023-02-02T14:48:59.989Z,6.88
2023-02-02T14:51:30.566Z,7.40
2023-02-02T14:54:04.509Z,7.63
2023-02-02T14:56:42.708Z,7.70
2023-02-02T14:59:19.917Z,6.82
2023-02-02T15:01:57.446Z,6.50
2023-02-02T15:04:26.818Z,6.88
2023-02-02T15:06:54.585Z,7.20
2023-02-02T15:09:26.308Z,7.57
2023-02-02T15:12:02.159Z,6.60
2023-02-02T15:14:52.815Z,14.27
2023-02-02T15:17:28.622Z,7.10
2023-02-02T15:20:20.708Z,6.70
2023-02-02T15:23:08.097Z,6.75
2023-02-02T15:25:47.682Z,6.50
2023-02-02T15:28:38.951Z,6.93
2023-02-02T15:31:15.192Z,8.25
2023-02-02T15:33:44.827Z,6.75
2023-02-02T15:36:13.980Z,6.47
2023-02-02T15:38:43.403Z,11.15
2023-02-02T15:41:19.054Z,7.38
2023-02-02T15:43:45.994Z,6.65
2023-02-02T15:46:23.742Z,8.60
2023-02-02T15:49:32.926Z,6.28
2023-02-02T15:52:09.974Z,6.60
2023-02-02T15:54:39.805Z,6.75
2023-02-02T15:57:24.890Z,7.60
2023-02-02T15:59:51.735Z,7.65
2023-02-02T16:02:42.911Z,6.93
2023-02-02T16:05:35.277Z,7.80
2023-02-02T16:08:06.047Z,7.40
2023-02-02T16:10:34.286Z,8.15
2023-02-02T16:13:01.480Z,8.48
2023-02-02T16:15:31.929Z,7.93
2023-02-02T16:18:02.432Z,7.88
2023-02-02T16:20:32.893Z,8.45
2023-02-02T16:23:02.036Z,8.52
2023-02-02T16:25:32.324Z,9.23
2023-02-02T16:28:00.849Z,9.05
2023-02-02T16:30:35.391Z,7.95
2023-02-02T16:33:33.922Z,10.00
2023-02-02T16:36:00.869Z,10.40
2023-02-02T16:38:36.502Z,9.88
2023-02-02T16:41:12.160Z,9.50
2023-02-02T16:43:43.092Z,9.38
2023-02-02T16:46:15.302Z,9.85
2023-02-02T16:49:00.130Z,8.73
2023-02-02T16:51:33.899Z,9.35
2023-02-02T16:54:06.736Z,10.38
2023-02-02T16:56:45.809Z,9.82
2023-02-02T16:59:24.407Z,10.00
2023-02-02T17:02:21.248Z,9.93
2023-02-02T17:04:52.009Z,9.60
2023-02-02T17:07:20.455Z,9.95
2023-02-02T17:09:48.471Z,10.15
2023-02-02T17:12:34.984Z,9.82
2023-02-02T17:15:31.127Z,10.32
2023-02-02T17:17:58.792Z,9.75
2023-02-02T17:20:26.673Z,11.10
2023-02-02T17:23:01.201Z,10.88
2023-02-02T17:25:35.608Z,9.82
2023-02-02T17:28:03.527Z,10.70
2023-02-02T17:30:30.621Z,10.18
2023-02-02T17:32:57.478Z,11.35
2023-02-02T17:35:26.847Z,11.30
2023-02-02T17:37:54.250Z,10.00
2023-02-02T17:40:23.172Z,10.90
2023-02-02T17:42:52.250Z,11.57
2023-02-02T17:45:28.540Z,10.65
2023-02-02T17:47:55.390Z,11.52
2023-02-02T17:50:22.164Z,11.57
2023-02-02T17:55:31.674Z,10.50
2023-02-02T17:57:58.317Z,11.23
2023-02-02T18:00:27.642Z,10.63
2023-02-02T18:03:09.245Z,11.00
2023-02-02T18:05:37.805Z,11.07
2023-02-02T18:08:05.102Z,10.25
2023-02-02T18:10:31.805Z,10.65
2023-02-02T18:12:58.396Z,11.30
2023-02-02T18:15:25.335Z,11.68
2023-02-02T18:17:52.348Z,10.70
2023-02-02T18:20:19.064Z,10.63
2023-02-02T18:22:48.150Z,11.35
2023-02-02T18:25:15.208Z,11.70
2023-02-02T18:27:41.812Z,10.32
2023-02-02T18:30:09.630Z,10.55
2023-02-02T18:32:38.218Z,11.98
2023-02-02T18:35:05.942Z,11.52
2023-02-02T18:37:32.564Z,13.52
2023-02-02T18:39:59.136Z,12.00
2023-02-02T18:42:29.805Z,14.70
2023-02-02T18:44:56.885Z,9.90
2023-02-02T18:47:23.628Z,9.65
2023-02-02T18:49:50.419Z,9.13
2023-02-02T18:52:18.905Z,10.27
2023-02-02T18:54:47.607Z,10.05
2023-02-02T18:57:14.477Z,9.63
2023-02-02T18:59:41.794Z,10.55
2023-02-02T19:02:14.005Z,10.43
2023-02-02T19:05:00.936Z,10.68
2023-02-02T19:07:46.321Z,10.75
2023-02-02T19:10:12.978Z,10.10
2023-02-02T19:12:39.633Z,9.80
2023-02-02T19:15:13.559Z,9.02
2023-02-02T19:17:40.761Z,9.25
2023-02-02T19:20:20.901Z,9.20
2023-02-02T19:22:47.473Z,10.27
2023-02-02T19:25:14.109Z,10.35
2023-02-02T19:27:41.165Z,10.20
2023-02-02T19:30:18.391Z,9.27
2023-02-02T19:32:45.229Z,8.13
2023-02-02T19:35:29.510Z,10.50
2023-02-02T19:38:01.649Z,8.45
2023-02-02T19:40:28.597Z,8.02
2023-02-02T19:42:59.373Z,8.75
2023-02-02T19:45:34.393Z,9.38
2023-02-02T19:48:13.920Z,9.07
2023-02-02T19:50:43.397Z,8.10
2023-02-02T19:53:31.201Z,7.47
2023-02-02T19:55:57.793Z,7.45
2023-02-02T19:58:28.778Z,8.20
2023-02-02T20:00:57.793Z,7.53
2023-02-02T20:03:27.915Z,7.45
2023-02-02T20:05:56.865Z,8.32
2023-02-02T20:08:31.458Z,7.05
2023-02-02T20:11:28.449Z,7.70
2023-02-02T20:13:55.041Z,8.50
2023-02-02T20:16:23.835Z,7.47
2023-02-02T20:18:57.671Z,8.80
2023-02-02T20:21:34.447Z,7.82
2023-02-02T20:24:01.073Z,7.70
2023-02-02T20:26:37.165Z,8.20
2023-02-02T20:29:43.307Z,6.80
2023-02-02T20:32:26.792Z,7.55
2023-02-02T20:34:55.991Z,6.47
2023-02-02T20:37:29.136Z,8.30
2023-02-02T20:40:01.125Z,8.32
2023-02-02T20:42:28.897Z,8.07
2023-02-02T20:44:57.967Z,8.27
2023-02-02T20:47:24.810Z,7.32
2023-02-02T20:49:51.410Z,7.82
2023-02-02T20:52:23.347Z,8.15
2023-02-02T20:54:51.328Z,7.72
2023-02-02T20:57:18.136Z,9.93
2023-02-02T20:59:44.793Z,8.23
2023-02-02T21:02:18.767Z,7.57
2023-02-02T21:04:49.171Z,8.05
2023-02-02T21:07:17.416Z,8.40
2023-02-02T21:09:44.738Z,7.57
2023-02-02T21:12:11.896Z,7.70
2023-02-02T21:14:38.963Z,7.07
2023-02-02T21:17:14.948Z,8.10
2023-02-02T21:19:43.416Z,6.53
2023-02-02T21:22:10.646Z,7.53
2023-02-02T21:24:37.312Z,7.05
2023-02-02T21:27:04.459Z,7.75
2023-02-02T21:29:31.903Z,7.30
2023-02-02T21:32:00.586Z,8.27
2023-02-02T21:34:27.740Z,8.38
2023-02-02T21:36:59.027Z,7.32
2023-02-02T21:39:34.886Z,7.15
2023-02-02T21:42:07.431Z,7.45
2023-02-02T21:44:44.432Z,6.90
2023-02-02T21:47:27.710Z,7.07
2023-02-02T21:50:02.597Z,7.20
2023-02-02T21:52:33.795Z,7.10
2023-02-02T21:55:11.557Z,5.82
2023-02-02T21:57:38.204Z,7.72
2023-02-02T22:00:34.397Z,6.45
2023-02-02T22:03:01.117Z,6.75
2023-02-02T22:05:35.970Z,6.13
2023-02-02T22:08:22.346Z,6.93
2023-02-02T22:10:49.088Z,6.07
2023-02-02T22:13:22.783Z,5.72
2023-02-02T22:15:51.390Z,5.72
2023-02-02T22:18:20.791Z,5.43
2023-02-02T22:20:50.466Z,6.28
2023-02-02T22:23:20.502Z,5.28
2023-02-02T22:25:49.469Z,5.75
2023-02-02T22:28:21.310Z,6.65
2023-02-02T22:30:49.048Z,5.22
2023-02-02T22:33:16.123Z,5.13
2023-02-02T22:35:43.370Z,5.13
2023-02-02T22:38:15.317Z,6.30
2023-02-02T22:40:41.906Z,6.15
2023-02-02T22:43:08.643Z,5.47
2023-02-02T22:45:35.515Z,5.05
2023-02-02T22:48:02.157Z,6.93
2023-02-02T22:50:30.892Z,6.70
2023-02-02T22:52:58.172Z,6.07
2023-02-02T22:55:25.195Z,5.80
2023-02-02T22:57:51.866Z,5.25
2023-02-02T23:00:24.016Z,5.93
2023-02-02T23:02:51.562Z,6.32
2023-02-02T23:05:19.640Z,6.57
2023-02-02T23:07:47.346Z,6.28
2023-02-02T23:10:16.905Z,7.32
2023-02-02T23:12:44.147Z,6.97
2023-02-02T23:15:12.316Z,7.47
2023-02-02T23:17:38.945Z,6.78
2023-02-02T23:20:08.766Z,7.45
2023-02-02T23:22:35.757Z,6.70
2023-02-02T23:25:02.377Z,7.05
2023-02-02T23:27:29.030Z,6.97
2023-02-02T23:29:55.634Z,6.68
2023-02-02T23:32:22.294Z,6.38
2023-02-02T23:34:48.872Z,8.02
2023-02-02T23:37:15.471Z,6.47
2023-02-02T23:39:42.199Z,6.65
2023-02-02T23:42:08.764Z,6.43
2023-02-02T23:44:35.368Z,6.60
2023-02-02T23:47:02.854Z,6.80
2023-02-02T23:49:31.556Z,6.35
2023-02-02T23:51:58.273Z,6.72
2023-02-02T23:54:25.430Z,6.18
2023-02-02T23:56:52.344Z,6.97
2023-02-02T23:59:18.943Z,6.60
